sensor_id;sensor_type;location;lat;lon;timestamp;P1;durP1;ratioP1;P2;durP2;ratioP2
72105;SDS011;59975;47.646;18.318;2022-09-09T00:11:52;5.13;;;1.77;;
72105;SDS011;59975;47.646;18.318;2022-09-09T00:30:55;3.07;;;1.90;;
72105;SDS011;59975;47.646;18.318;2022-09-09T00:33:23;2.90;;;2.00;;
72105;SDS011;59975;47.646;18.318;2022-09-09T00:35:59;2.20;;;1.70;;
72105;SDS011;59975;47.646;18.318;2022-09-09T00:57:36;2.57;;;1.90;;
72105;SDS011;59975;47.646;18.318;2022-09-09T01:00:27;4.55;;;2.20;;
72105;SDS011;59975;47.646;18.318;2022-09-09T01:16:10;2.67;;;1.93;;
72105;SDS011;59975;47.646;18.318;2022-09-09T01:18:39;4.22;;;2.83;;
72105;SDS011;59975;47.646;18.318;2022-09-09T01:21:53;4.75;;;2.60;;
72105;SDS011;59975;47.646;18.318;2022-09-09T01:24:30;3.85;;;2.80;;
72105;SDS011;59975;47.646;18.318;2022-09-09T01:27:06;3.38;;;2.47;;
72105;SDS011;59975;47.646;18.318;2022-09-09T01:29:35;3.10;;;2.20;;
72105;SDS011;59975;47.646;18.318;2022-09-09T01:32:35;6.05;;;2.47;;
72105;SDS011;59975;47.646;18.318;2022-09-09T01:35:13;4.32;;;2.60;;
72105;SDS011;59975;47.646;18.318;2022-09-09T01:37:45;6.38;;;2.90;;
72105;SDS011;59975;47.646;18.318;2022-09-09T01:40:12;3.05;;;2.20;;
72105;SDS011;59975;47.646;18.318;2022-09-09T01:42:38;4.17;;;3.00;;
72105;SDS011;59975;47.646;18.318;2022-09-09T01:45:04;3.60;;;2.83;;
72105;SDS011;59975;47.646;18.318;2022-09-09T01:50:53;4.68;;;3.10;;
72105;SDS011;59975;47.646;18.318;2022-09-09T01:56:44;7.23;;;3.77;;
72105;SDS011;59975;47.646;18.318;2022-09-09T02:00:00;5.63;;;3.75;;
72105;SDS011;59975;47.646;18.318;2022-09-09T02:03:04;4.60;;;3.73;;
72105;SDS011;59975;47.646;18.318;2022-09-09T02:36:42;8.33;;;4.30;;
72105;SDS011;59975;47.646;18.318;2022-09-09T02:39:10;5.78;;;4.07;;
72105;SDS011;59975;47.646;18.318;2022-09-09T02:41:38;5.80;;;4.03;;
72105;SDS011;59975;47.646;18.318;2022-09-09T02:44:16;6.97;;;3.90;;
72105;SDS011;59975;47.646;18.318;2022-09-09T02:46:47;7.63;;;3.95;;
72105;SDS011;59975;47.646;18.318;2022-09-09T03:33:10;16.73;;;14.93;;
72105;SDS011;59975;47.646;18.318;2022-09-09T03:35:36;28.27;;;25.17;;
72105;SDS011;59975;47.646;18.318;2022-09-09T03:41:24;16.25;;;13.55;;
72105;SDS011;59975;47.646;18.318;2022-09-09T03:43:50;24.55;;;19.30;;
72105;SDS011;59975;47.646;18.318;2022-09-09T03:46:16;10.77;;;9.13;;
72105;SDS011;59975;47.646;18.318;2022-09-09T03:48:42;12.20;;;7.33;;
72105;SDS011;59975;47.646;18.318;2022-09-09T03:51:07;7.97;;;4.95;;
72105;SDS011;59975;47.646;18.318;2022-09-09T03:53:33;7.40;;;4.43;;
72105;SDS011;59975;47.646;18.318;2022-09-09T03:55:59;6.90;;;4.57;;
72105;SDS011;59975;47.646;18.318;2022-09-09T03:58:26;7.03;;;4.33;;
72105;SDS011;59975;47.646;18.318;2022-09-09T04:04:15;7.63;;;4.43;;
72105;SDS011;59975;47.646;18.318;2022-09-09T04:06:40;7.57;;;4.10;;
72105;SDS011;59975;47.646;18.318;2022-09-09T04:12:28;5.45;;;3.83;;
72105;SDS011;59975;47.646;18.318;2022-09-09T04:14:53;8.23;;;4.47;;
72105;SDS011;59975;47.646;18.318;2022-09-09T04:17:19;5.67;;;3.80;;
72105;SDS011;59975;47.646;18.318;2022-09-09T04:19:46;5.82;;;3.42;;
72105;SDS011;59975;47.646;18.318;2022-09-09T04:22:12;10.40;;;4.28;;
72105;SDS011;59975;47.646;18.318;2022-09-09T04:24:40;5.53;;;3.55;;
72105;SDS011;59975;47.646;18.318;2022-09-09T04:27:06;6.73;;;3.70;;
72105;SDS011;59975;47.646;18.318;2022-09-09T04:29:31;5.00;;;3.70;;
72105;SDS011;59975;47.646;18.318;2022-09-09T04:31:57;8.65;;;3.97;;
72105;SDS011;59975;47.646;18.318;2022-09-09T04:34:23;6.47;;;3.90;;
72105;SDS011;59975;47.646;18.318;2022-09-09T04:36:51;5.70;;;3.90;;
72105;SDS011;59975;47.646;18.318;2022-09-09T04:39:18;6.07;;;3.90;;
72105;SDS011;59975;47.646;18.318;2022-09-09T04:41:45;6.65;;;4.10;;
72105;SDS011;59975;47.646;18.318;2022-09-09T04:44:12;5.57;;;3.95;;
72105;SDS011;59975;47.646;18.318;2022-09-09T05:03:28;6.53;;;4.20;;
72105;SDS011;59975;47.646;18.318;2022-09-09T05:05:54;6.25;;;4.40;;
72105;SDS011;59975;47.646;18.318;2022-09-09T05:08:21;6.20;;;4.40;;
72105;SDS011;59975;47.646;18.318;2022-09-09T05:10:47;6.38;;;4.40;;
72105;SDS011;59975;47.646;18.318;2022-09-09T05:13:14;7.73;;;4.33;;
72105;SDS011;59975;47.646;18.318;2022-09-09T05:15:41;6.22;;;3.88;;
72105;SDS011;59975;47.646;18.318;2022-09-09T05:21:31;7.25;;;4.30;;
72105;SDS011;59975;47.646;18.318;2022-09-09T05:23:56;10.25;;;4.80;;
72105;SDS011;59975;47.646;18.318;2022-09-09T05:29:45;10.60;;;4.65;;
72105;SDS011;59975;47.646;18.318;2022-09-09T05:32:11;8.57;;;5.13;;
72105;SDS011;59975;47.646;18.318;2022-09-09T05:44:45;5.50;;;4.05;;
72105;SDS011;59975;47.646;18.318;2022-09-09T05:47:15;7.30;;;4.30;;
72105;SDS011;59975;47.646;18.318;2022-09-09T05:59:54;10.52;;;5.63;;
72105;SDS011;59975;47.646;18.318;2022-09-09T06:06:05;7.18;;;4.38;;
72105;SDS011;59975;47.646;18.318;2022-09-09T06:11:10;12.00;;;4.80;;
72105;SDS011;59975;47.646;18.318;2022-09-09T06:12:00;7.67;;;5.03;;
72105;SDS011;59975;47.646;18.318;2022-09-09T06:21:15;6.17;;;4.30;;
72105;SDS011;59975;47.646;18.318;2022-09-09T06:23:45;7.78;;;4.15;;
72105;SDS011;59975;47.646;18.318;2022-09-09T06:26:17;5.97;;;4.00;;
72105;SDS011;59975;47.646;18.318;2022-09-09T06:28:51;9.55;;;4.68;;
72105;SDS011;59975;47.646;18.318;2022-09-09T06:31:19;6.75;;;4.22;;
72105;SDS011;59975;47.646;18.318;2022-09-09T06:33:49;5.60;;;4.10;;
72105;SDS011;59975;47.646;18.318;2022-09-09T06:43:26;6.38;;;3.65;;
72105;SDS011;59975;47.646;18.318;2022-09-09T09:28:00;1.95;;;0.80;;
72105;SDS011;59975;47.646;18.318;2022-09-09T09:34:24;3.33;;;0.90;;
72105;SDS011;59975;47.646;18.318;2022-09-09T09:36:59;3.30;;;0.70;;
72105;SDS011;59975;47.646;18.318;2022-09-09T09:37:15;1.77;;;1.02;;
72105;SDS011;59975;47.646;18.318;2022-09-09T09:43:05;1.60;;;0.60;;
72105;SDS011;59975;47.646;18.318;2022-09-09T09:45:40;1.15;;;0.70;;
72105;SDS011;59975;47.646;18.318;2022-09-09T09:48:13;1.67;;;0.73;;
72105;SDS011;59975;47.646;18.318;2022-09-09T10:03:54;2.15;;;0.80;;
72105;SDS011;59975;47.646;18.318;2022-09-09T10:06:34;3.20;;;0.70;;
72105;SDS011;59975;47.646;18.318;2022-09-09T10:09:17;1.42;;;0.82;;
72105;SDS011;59975;47.646;18.318;2022-09-09T10:15:42;1.52;;;0.60;;
72105;SDS011;59975;47.646;18.318;2022-09-09T13:58:16;0.90;;;0.60;;
72105;SDS011;59975;47.646;18.318;2022-09-09T14:00:46;1.83;;;0.80;;
72105;SDS011;59975;47.646;18.318;2022-09-09T14:06:35;1.70;;;0.65;;
72105;SDS011;59975;47.646;18.318;2022-09-09T14:09:05;3.15;;;0.60;;
72105;SDS011;59975;47.646;18.318;2022-09-09T14:11:31;2.83;;;0.60;;
72105;SDS011;59975;47.646;18.318;2022-09-09T14:13:59;2.30;;;0.80;;
72105;SDS011;59975;47.646;18.318;2022-09-09T14:16:27;1.83;;;0.60;;
72105;SDS011;59975;47.646;18.318;2022-09-09T14:18:55;1.60;;;0.70;;
72105;SDS011;59975;47.646;18.318;2022-09-09T14:21:21;1.73;;;0.70;;
72105;SDS011;59975;47.646;18.318;2022-09-09T14:23:47;1.97;;;0.70;;
72105;SDS011;59975;47.646;18.318;2022-09-09T14:29:36;3.53;;;0.75;;
72105;SDS011;59975;47.646;18.318;2022-09-09T14:32:02;2.30;;;0.70;;
72105;SDS011;59975;47.646;18.318;2022-09-09T14:37:50;2.13;;;0.77;;
72105;SDS011;59975;47.646;18.318;2022-09-09T14:46:59;1.63;;;0.70;;
72105;SDS011;59975;47.646;18.318;2022-09-09T14:49:25;1.25;;;0.70;;
72105;SDS011;59975;47.646;18.318;2022-09-09T14:51:50;1.83;;;0.70;;
72105;SDS011;59975;47.646;18.318;2022-09-09T14:54:17;1.10;;;0.70;;
72105;SDS011;59975;47.646;18.318;2022-09-09T14:56:44;2.13;;;0.80;;
72105;SDS011;59975;47.646;18.318;2022-09-09T14:59:09;3.03;;;0.60;;
72105;SDS011;59975;47.646;18.318;2022-09-09T15:01:35;4.03;;;0.83;;
72105;SDS011;59975;47.646;18.318;2022-09-09T15:04:03;3.65;;;0.70;;
72105;SDS011;59975;47.646;18.318;2022-09-09T15:06:30;2.57;;;0.63;;
72105;SDS011;59975;47.646;18.318;2022-09-09T15:12:20;5.30;;;0.98;;
72105;SDS011;59975;47.646;18.318;2022-09-09T15:14:46;1.80;;;0.55;;
72105;SDS011;59975;47.646;18.318;2022-09-09T15:20:36;2.63;;;0.83;;
72105;SDS011;59975;47.646;18.318;2022-09-09T15:26:24;2.35;;;0.75;;
72105;SDS011;59975;47.646;18.318;2022-09-09T15:28:51;2.55;;;0.85;;
72105;SDS011;59975;47.646;18.318;2022-09-09T15:34:39;3.67;;;0.90;;
72105;SDS011;59975;47.646;18.318;2022-09-09T15:40:27;2.25;;;0.80;;
72105;SDS011;59975;47.646;18.318;2022-09-09T15:42:53;3.23;;;0.70;;
72105;SDS011;59975;47.646;18.318;2022-09-09T15:48:41;2.88;;;0.68;;
72105;SDS011;59975;47.646;18.318;2022-09-09T15:51:07;6.03;;;1.03;;
72105;SDS011;59975;47.646;18.318;2022-09-09T15:53:39;1.58;;;0.70;;
72105;SDS011;59975;47.646;18.318;2022-09-09T15:59:28;12.15;;;4.55;;
72105;SDS011;59975;47.646;18.318;2022-09-09T16:01:56;10.15;;;3.50;;
72105;SDS011;59975;47.646;18.318;2022-09-09T16:04:23;7.77;;;3.03;;
72105;SDS011;59975;47.646;18.318;2022-09-09T16:06:51;7.72;;;2.83;;
72105;SDS011;59975;47.646;18.318;2022-09-09T16:09:19;7.72;;;2.08;;
72105;SDS011;59975;47.646;18.318;2022-09-09T16:11:45;4.45;;;1.70;;
72105;SDS011;59975;47.646;18.318;2022-09-09T16:20:56;3.50;;;0.82;;
72105;SDS011;59975;47.646;18.318;2022-09-09T16:23:22;1.80;;;0.88;;
72105;SDS011;59975;47.646;18.318;2022-09-09T16:25:53;3.60;;;0.57;;
72105;SDS011;59975;47.646;18.318;2022-09-09T16:31:41;4.43;;;1.00;;
72105;SDS011;59975;47.646;18.318;2022-09-09T16:34:07;4.72;;;1.17;;
72105;SDS011;59975;47.646;18.318;2022-09-09T16:36:35;3.05;;;1.05;;
72105;SDS011;59975;47.646;18.318;2022-09-09T16:42:27;3.83;;;0.90;;
72105;SDS011;59975;47.646;18.318;2022-09-09T16:44:53;1.50;;;0.80;;
72105;SDS011;59975;47.646;18.318;2022-09-09T16:57:24;5.85;;;0.80;;
72105;SDS011;59975;47.646;18.318;2022-09-09T17:03:13;2.03;;;0.73;;
72105;SDS011;59975;47.646;18.318;2022-09-09T17:05:39;1.93;;;0.70;;
72105;SDS011;59975;47.646;18.318;2022-09-09T17:08:06;5.22;;;0.80;;
72105;SDS011;59975;47.646;18.318;2022-09-09T17:10:32;4.43;;;1.58;;
72105;SDS011;59975;47.646;18.318;2022-09-09T17:13:00;1.70;;;0.90;;
72105;SDS011;59975;47.646;18.318;2022-09-09T17:18:50;3.03;;;0.83;;
72105;SDS011;59975;47.646;18.318;2022-09-09T17:24:39;5.35;;;0.82;;
72105;SDS011;59975;47.646;18.318;2022-09-09T17:27:06;4.18;;;1.08;;
72105;SDS011;59975;47.646;18.318;2022-09-09T17:29:33;1.58;;;1.00;;
72105;SDS011;59975;47.646;18.318;2022-09-09T17:35:24;1.48;;;0.77;;
72105;SDS011;59975;47.646;18.318;2022-09-09T17:47:55;3.10;;;1.03;;
72105;SDS011;59975;47.646;18.318;2022-09-09T17:57:06;3.53;;;1.00;;
72105;SDS011;59975;47.646;18.318;2022-09-09T17:59:32;2.22;;;0.95;;
72105;SDS011;59975;47.646;18.318;2022-09-09T18:02:00;2.23;;;1.13;;
72105;SDS011;59975;47.646;18.318;2022-09-09T18:04:26;3.00;;;1.10;;
72105;SDS011;59975;47.646;18.318;2022-09-09T18:06:52;5.75;;;1.30;;
72105;SDS011;59975;47.646;18.318;2022-09-09T18:09:20;2.13;;;1.23;;
72105;SDS011;59975;47.646;18.318;2022-09-09T18:11:49;3.45;;;1.30;;
72105;SDS011;59975;47.646;18.318;2022-09-09T18:14:16;3.03;;;1.00;;
72105;SDS011;59975;47.646;18.318;2022-09-09T18:16:45;2.38;;;1.20;;
72105;SDS011;59975;47.646;18.318;2022-09-09T18:22:33;5.35;;;1.55;;
72105;SDS011;59975;47.646;18.318;2022-09-09T18:24:58;3.80;;;1.80;;
72105;SDS011;59975;47.646;18.318;2022-09-09T18:30:46;8.90;;;2.30;;
72105;SDS011;59975;47.646;18.318;2022-09-09T18:33:13;11.25;;;2.97;;
72105;SDS011;59975;47.646;18.318;2022-09-09T18:39:00;4.90;;;1.70;;
72105;SDS011;59975;47.646;18.318;2022-09-09T18:44:50;8.05;;;1.77;;
72105;SDS011;59975;47.646;18.318;2022-09-09T18:47:17;5.22;;;1.58;;
72105;SDS011;59975;47.646;18.318;2022-09-09T18:49:44;4.40;;;1.60;;
72105;SDS011;59975;47.646;18.318;2022-09-09T18:52:11;4.47;;;1.83;;
72105;SDS011;59975;47.646;18.318;2022-09-09T18:54:37;4.33;;;1.20;;
72105;SDS011;59975;47.646;18.318;2022-09-09T18:57:03;4.10;;;1.50;;
72105;SDS011;59975;47.646;18.318;2022-09-09T18:59:30;5.55;;;1.33;;
72105;SDS011;59975;47.646;18.318;2022-09-09T19:01:56;6.68;;;1.63;;
72105;SDS011;59975;47.646;18.318;2022-09-09T19:04:22;10.30;;;1.88;;
72105;SDS011;59975;47.646;18.318;2022-09-09T19:10:11;8.67;;;1.90;;
72105;SDS011;59975;47.646;18.318;2022-09-09T19:16:06;4.97;;;1.70;;
72105;SDS011;59975;47.646;18.318;2022-09-09T19:18:34;4.85;;;1.65;;
72105;SDS011;59975;47.646;18.318;2022-09-09T19:21:12;3.63;;;1.70;;
72105;SDS011;59975;47.646;18.318;2022-09-09T19:23:42;3.00;;;1.50;;
72105;SDS011;59975;47.646;18.318;2022-09-09T19:26:09;4.38;;;1.38;;
72105;SDS011;59975;47.646;18.318;2022-09-09T19:35:19;5.85;;;2.13;;
72105;SDS011;59975;47.646;18.318;2022-09-09T19:37:45;5.37;;;1.50;;
72105;SDS011;59975;47.646;18.318;2022-09-09T19:40:12;3.78;;;1.33;;
72105;SDS011;59975;47.646;18.318;2022-09-09T19:42:37;6.80;;;1.70;;
72105;SDS011;59975;47.646;18.318;2022-09-09T19:45:06;4.80;;;1.52;;
72105;SDS011;59975;47.646;18.318;2022-09-09T19:47:35;4.75;;;1.55;;
72105;SDS011;59975;47.646;18.318;2022-09-09T19:56:44;5.83;;;2.37;;
72105;SDS011;59975;47.646;18.318;2022-09-09T19:59:11;3.15;;;1.40;;
72105;SDS011;59975;47.646;18.318;2022-09-09T20:01:38;3.60;;;1.55;;
72105;SDS011;59975;47.646;18.318;2022-09-09T20:04:05;4.53;;;1.60;;
72105;SDS011;59975;47.646;18.318;2022-09-09T20:06:35;6.60;;;1.80;;
72105;SDS011;59975;47.646;18.318;2022-09-09T20:09:04;3.58;;;1.42;;
72105;SDS011;59975;47.646;18.318;2022-09-09T20:11:33;6.05;;;1.80;;
72105;SDS011;59975;47.646;18.318;2022-09-09T20:13:59;5.13;;;1.42;;
72105;SDS011;59975;47.646;18.318;2022-09-09T20:23:09;4.68;;;1.60;;
72105;SDS011;59975;47.646;18.318;2022-09-09T20:25:36;4.50;;;1.88;;
72105;SDS011;59975;47.646;18.318;2022-09-09T20:28:02;5.30;;;1.60;;
72105;SDS011;59975;47.646;18.318;2022-09-09T20:30:29;5.63;;;1.70;;
72105;SDS011;59975;47.646;18.318;2022-09-09T20:36:19;3.22;;;1.50;;
72105;SDS011;59975;47.646;18.318;2022-09-09T20:38:47;7.65;;;1.83;;
72105;SDS011;59975;47.646;18.318;2022-09-09T20:41:15;4.50;;;1.50;;
72105;SDS011;59975;47.646;18.318;2022-09-09T20:59:27;2.72;;;1.50;;
72105;SDS011;59975;47.646;18.318;2022-09-09T21:01:55;10.23;;;1.93;;
72105;SDS011;59975;47.646;18.318;2022-09-09T21:07:45;4.93;;;2.08;;
72105;SDS011;59975;47.646;18.318;2022-09-09T21:10:11;4.88;;;1.88;;
72105;SDS011;59975;47.646;18.318;2022-09-09T21:12:39;6.82;;;2.03;;
72105;SDS011;59975;47.646;18.318;2022-09-09T21:15:06;5.07;;;2.00;;
72105;SDS011;59975;47.646;18.318;2022-09-09T21:17:32;5.38;;;2.08;;
72105;SDS011;59975;47.646;18.318;2022-09-09T21:23:20;3.83;;;1.75;;
72105;SDS011;59975;47.646;18.318;2022-09-09T21:25:48;4.75;;;1.63;;
72105;SDS011;59975;47.646;18.318;2022-09-09T21:28:16;8.07;;;1.60;;
72105;SDS011;59975;47.646;18.318;2022-09-09T21:34:04;5.50;;;1.92;;
72105;SDS011;59975;47.646;18.318;2022-09-09T21:36:30;5.60;;;1.83;;
72105;SDS011;59975;47.646;18.318;2022-09-09T21:38:56;7.35;;;2.67;;
72105;SDS011;59975;47.646;18.318;2022-09-09T21:41:23;4.20;;;2.20;;
72105;SDS011;59975;47.646;18.318;2022-09-09T21:47:10;4.80;;;2.37;;
72105;SDS011;59975;47.646;18.318;2022-09-09T21:49:36;7.93;;;2.00;;
72105;SDS011;59975;47.646;18.318;2022-09-09T21:52:03;2.73;;;1.70;;
72105;SDS011;59975;47.646;18.318;2022-09-09T21:54:29;5.82;;;2.40;;
72105;SDS011;59975;47.646;18.318;2022-09-09T21:56:58;5.63;;;1.80;;
72105;SDS011;59975;47.646;18.318;2022-09-09T21:59:25;6.07;;;2.03;;
72105;SDS011;59975;47.646;18.318;2022-09-09T22:01:51;6.15;;;2.38;;
72105;SDS011;59975;47.646;18.318;2022-09-09T22:04:17;4.50;;;2.00;;
72105;SDS011;59975;47.646;18.318;2022-09-09T22:13:27;4.45;;;1.83;;
72105;SDS011;59975;47.646;18.318;2022-09-09T22:22:38;5.53;;;1.90;;
72105;SDS011;59975;47.646;18.318;2022-09-09T22:25:06;5.07;;;2.00;;
72105;SDS011;59975;47.646;18.318;2022-09-09T22:27:33;5.10;;;2.10;;
72105;SDS011;59975;47.646;18.318;2022-09-09T22:33:23;3.83;;;1.85;;
72105;SDS011;59975;47.646;18.318;2022-09-09T22:35:50;4.20;;;2.20;;
72105;SDS011;59975;47.646;18.318;2022-09-09T22:38:16;5.07;;;2.30;;
72105;SDS011;59975;47.646;18.318;2022-09-09T22:40:42;4.30;;;2.20;;
72105;SDS011;59975;47.646;18.318;2022-09-09T22:43:12;7.17;;;2.60;;
72105;SDS011;59975;47.646;18.318;2022-09-09T22:52:24;5.07;;;2.00;;
72105;SDS011;59975;47.646;18.318;2022-09-09T22:58:11;3.47;;;1.90;;
72105;SDS011;59975;47.646;18.318;2022-09-09T23:00:38;6.90;;;2.67;;
72105;SDS011;59975;47.646;18.318;2022-09-09T23:03:07;5.35;;;1.98;;
72105;SDS011;59975;47.646;18.318;2022-09-09T23:05:34;3.17;;;2.03;;
72105;SDS011;59975;47.646;18.318;2022-09-09T23:11:26;2.70;;;1.60;;
72105;SDS011;59975;47.646;18.318;2022-09-09T23:13:57;4.07;;;1.58;;
72105;SDS011;59975;47.646;18.318;2022-09-09T23:16:27;6.18;;;1.90;;
72105;SDS011;59975;47.646;18.318;2022-09-09T23:18:54;7.75;;;1.75;;
72105;SDS011;59975;47.646;18.318;2022-09-09T23:21:22;4.63;;;1.90;;
72105;SDS011;59975;47.646;18.318;2022-09-09T23:23:52;7.70;;;1.90;;
72105;SDS011;59975;47.646;18.318;2022-09-09T23:26:20;5.53;;;2.15;;
72105;SDS011;59975;47.646;18.318;2022-09-09T23:28:47;4.25;;;1.50;;
72105;SDS011;59975;47.646;18.318;2022-09-09T23:31:15;6.25;;;1.80;;
72105;SDS011;59975;47.646;18.318;2022-09-09T23:33:45;2.85;;;1.35;;
72105;SDS011;59975;47.646;18.318;2022-09-09T23:39:36;2.80;;;1.42;;
72105;SDS011;59975;47.646;18.318;2022-09-09T23:42:03;3.22;;;1.75;;
72105;SDS011;59975;47.646;18.318;2022-09-09T23:44:33;2.83;;;1.52;;
72105;SDS011;59975;47.646;18.318;2022-09-09T23:47:00;5.05;;;2.00;;
72105;SDS011;59975;47.646;18.318;2022-09-09T23:49:28;3.27;;;1.73;;
72105;SDS011;59975;47.646;18.318;2022-09-09T23:51:54;2.70;;;1.42;;
72105;SDS011;59975;47.646;18.318;2022-09-09T23:54:20;4.40;;;1.55;;
72105;SDS011;59975;47.646;18.318;2022-09-09T23:56:46;3.53;;;1.10;;
72105;SDS011;59975;47.646;18.318;2022-09-09T23:59:12;2.67;;;1.42;;
